createdAt,value
2019-02-25T00:01:15.218Z,41.94
2019-02-25T00:03:58.626Z,41.87
2019-02-25T00:06:49.535Z,40.49
2019-02-25T00:09:40.425Z,40.68
2019-02-25T00:12:24.383Z,40.57
2019-02-25T00:15:15.247Z,41.66
2019-02-25T00:17:59.086Z,43.30
2019-02-25T00:20:49.944Z,42.50
2019-02-25T00:23:33.881Z,42.09
2019-02-25T00:26:24.818Z,42.86
2019-02-25T00:29:08.582Z,43.58
2019-02-25T00:31:59.500Z,43.68
2019-02-25T00:34:43.488Z,42.66
2019-02-25T00:37:34.384Z,44.42
2019-02-25T00:40:17.911Z,46.37
2019-02-25T00:43:08.831Z,43.66
2019-02-25T00:46:12.216Z,43.32
2019-02-25T00:49:03.295Z,43.77
2019-02-25T00:51:46.836Z,44.66
2019-02-25T00:54:37.778Z,43.93
2019-02-25T00:57:21.599Z,42.95
2019-02-25T01:04:01.642Z,44.03
2019-02-25T01:06:52.606Z,45.20
2019-02-25T01:09:43.539Z,45.83
2019-02-25T01:12:26.783Z,45.04
2019-02-25T01:15:17.909Z,45.90
2019-02-25T01:18:01.316Z,46.04
2019-02-25T01:20:52.253Z,45.76
2019-02-25T01:23:36.051Z,45.60
2019-02-25T01:26:26.987Z,45.53
2019-02-25T01:29:10.808Z,45.53
2019-02-25T01:35:29.104Z,47.12
2019-02-25T01:38:20.063Z,44.99
2019-02-25T01:41:23.333Z,45.58
2019-02-25T01:44:14.267Z,45.70
2019-02-25T01:46:57.730Z,45.27
2019-02-25T01:49:48.660Z,46.03
2019-02-25T01:52:31.751Z,47.79
2019-02-25T01:58:31.552Z,47.87
2019-02-25T02:01:22.482Z,48.97
2019-02-25T02:04:06.306Z,48.40
2019-02-25T02:06:57.191Z,48.02
2019-02-25T02:09:40.647Z,48.44
2019-02-25T02:12:32.219Z,49.17
2019-02-25T02:15:36.219Z,49.20
2019-02-25T02:18:27.167Z,50.27
2019-02-25T02:21:11.133Z,50.95
2019-02-25T02:24:02.036Z,50.91
2019-02-25T02:26:45.916Z,49.99
2019-02-25T02:29:36.802Z,50.23
2019-02-25T02:32:20.432Z,48.98
2019-02-25T02:35:05.325Z,49.41
2019-02-25T02:37:56.221Z,48.54
2019-02-25T02:40:39.974Z,49.45
2019-02-25T02:43:30.913Z,48.55
2019-02-25T02:46:36.679Z,48.36
2019-02-25T02:52:55.385Z,51.26
2019-02-25T02:55:46.344Z,51.80
2019-02-25T02:58:30.237Z,52.00
2019-02-25T03:01:21.152Z,52.44
2019-02-25T03:04:04.707Z,52.75
2019-02-25T03:06:55.649Z,53.85
2019-02-25T03:09:39.521Z,52.91
2019-02-25T03:12:30.463Z,51.61
2019-02-25T03:15:15.280Z,50.42
2019-02-25T03:18:06.267Z,50.39
2019-02-25T03:20:50.196Z,47.55
2019-02-25T03:23:41.159Z,47.72
2019-02-25T03:26:25.230Z,48.80
2019-02-25T03:29:16.162Z,51.34
2019-02-25T03:31:59.859Z,50.34
2019-02-25T03:34:50.843Z,50.42
2019-02-25T03:37:34.259Z,47.92
2019-02-25T03:40:25.202Z,48.89
2019-02-25T03:43:08.596Z,48.79
2019-02-25T03:45:59.528Z,49.98
2019-02-25T03:48:43.441Z,51.37
2019-02-25T03:51:34.376Z,50.38
2019-02-25T03:54:17.722Z,51.99
2019-02-25T03:57:08.604Z,51.47
2019-02-25T03:59:52.298Z,52.49
2019-02-25T04:02:43.319Z,53.66
2019-02-25T04:05:26.695Z,53.05
2019-02-25T04:08:17.624Z,53.16
2019-02-25T04:11:01.655Z,53.42
2019-02-25T04:13:52.558Z,53.03
2019-02-25T04:16:35.779Z,53.82
2019-02-25T04:19:26.726Z,53.34
2019-02-25T04:22:10.645Z,53.83
2019-02-25T04:25:01.583Z,54.32
2019-02-25T04:27:45.320Z,55.24
2019-02-25T04:30:36.223Z,55.60
2019-02-25T04:33:19.959Z,55.62
2019-02-25T04:36:10.856Z,55.67
2019-02-25T04:38:54.531Z,55.47
2019-02-25T04:41:45.453Z,55.88
2019-02-25T04:44:29.153Z,55.67
2019-02-25T04:47:20.103Z,55.52
2019-02-25T04:50:03.518Z,55.36
2019-02-25T04:52:54.466Z,55.66
2019-02-25T04:55:38.465Z,55.15
2019-02-25T04:58:29.390Z,54.94
2019-02-25T05:01:13.117Z,54.50
2019-02-25T05:07:06.183Z,55.02
2019-02-25T05:09:57.141Z,54.65
2019-02-25T05:12:45.060Z,55.05
2019-02-25T05:18:59.882Z,56.34
2019-02-25T05:21:50.812Z,55.00
2019-02-25T05:24:34.951Z,54.74
2019-02-25T05:27:25.981Z,55.05
2019-02-25T05:30:09.790Z,55.96
2019-02-25T05:33:00.721Z,57.44
2019-02-25T05:35:44.128Z,56.81
2019-02-25T05:38:35.044Z,55.84
2019-02-25T05:41:18.786Z,55.62
2019-02-25T05:44:09.712Z,56.16
2019-02-25T05:46:53.672Z,54.22
2019-02-25T05:49:44.578Z,54.94
2019-02-25T05:52:28.425Z,55.51
2019-02-25T05:55:19.382Z,55.14
2019-02-25T05:58:03.356Z,55.69
2019-02-25T06:00:54.275Z,56.02
2019-02-25T06:03:37.868Z,55.50
2019-02-25T06:06:28.780Z,54.22
2019-02-25T06:09:19.675Z,54.52
2019-02-25T06:12:03.731Z,54.11
2019-02-25T06:14:54.741Z,54.61
2019-02-25T06:17:45.763Z,54.54
2019-02-25T06:20:29.296Z,54.55
2019-02-25T06:23:20.281Z,55.43
2019-02-25T06:26:04.206Z,56.14
2019-02-25T06:28:55.165Z,55.84
2019-02-25T06:31:38.477Z,56.52
2019-02-25T06:34:29.415Z,57.77
2019-02-25T06:37:20.335Z,58.25
2019-02-25T06:40:04.781Z,58.65
2019-02-25T06:42:55.704Z,58.85
2019-02-25T06:45:39.349Z,58.42
2019-02-25T06:48:30.197Z,58.13
2019-02-25T06:51:13.555Z,58.30
2019-02-25T06:54:04.429Z,57.27
2019-02-25T06:56:47.932Z,56.21
2019-02-25T06:59:38.795Z,53.96
2019-02-25T07:02:22.254Z,53.39
2019-02-25T07:05:31.994Z,53.86
2019-02-25T07:08:22.980Z,53.92
2019-02-25T07:11:32.773Z,51.64
2019-02-25T07:14:29.760Z,48.36
2019-02-25T07:17:39.551Z,46.98
2019-02-25T07:20:49.333Z,46.11
2019-02-25T07:23:51.825Z,45.66
2019-02-25T07:27:01.567Z,40.72
2019-02-25T07:30:10.274Z,35.74
2019-02-25T07:33:20.119Z,32.23
2019-02-25T07:36:13.403Z,29.55
2019-02-25T07:42:51.854Z,26.22
2019-02-25T07:46:01.670Z,24.31
2019-02-25T07:49:11.554Z,23.08
2019-02-25T07:52:08.522Z,22.55
2019-02-25T07:55:18.362Z,21.71
2019-02-25T07:58:20.422Z,21.02
2019-02-25T08:01:28.968Z,21.20
2019-02-25T08:04:37.649Z,21.57
2019-02-25T08:07:47.423Z,21.88
2019-02-25T08:10:55.410Z,21.42
2019-02-25T08:14:05.250Z,21.64
2019-02-25T08:16:54.808Z,21.06
2019-02-25T08:20:04.570Z,21.63
2019-02-25T08:23:07.073Z,22.59
2019-02-25T08:26:18.941Z,23.19
2019-02-25T08:29:19.794Z,23.65
2019-02-25T08:32:21.976Z,23.89
2019-02-25T08:39:19.138Z,24.05
2019-02-25T08:42:30.532Z,22.94
2019-02-25T08:45:38.683Z,22.44
2019-02-25T08:48:36.255Z,22.15
2019-02-25T08:51:20.135Z,22.09
2019-02-25T08:54:11.062Z,22.05
2019-02-25T08:56:55.380Z,21.88
2019-02-25T08:59:46.283Z,21.48
2019-02-25T09:02:31.269Z,21.34
2019-02-25T09:05:22.170Z,21.26
2019-02-25T09:08:05.591Z,20.80
2019-02-25T09:10:56.487Z,20.64
2019-02-25T09:13:40.287Z,20.50
2019-02-25T09:16:31.215Z,20.56
2019-02-25T09:19:33.919Z,20.03
2019-02-25T09:22:24.870Z,20.11
2019-02-25T09:25:27.857Z,19.74
2019-02-25T09:28:18.752Z,19.26
2019-02-25T09:31:02.855Z,18.95
2019-02-25T09:33:45.977Z,18.84
2019-02-25T09:36:36.930Z,18.72
2019-02-25T09:39:20.769Z,18.22
2019-02-25T09:42:11.688Z,17.80
2019-02-25T09:44:55.309Z,18.16
2019-02-25T09:47:46.255Z,18.48
2019-02-25T09:50:29.560Z,19.20
2019-02-25T09:53:20.520Z,19.19
2019-02-25T09:56:04.319Z,19.58
2019-02-25T09:58:55.316Z,19.22
2019-02-25T10:01:38.761Z,18.72
2019-02-25T10:04:29.672Z,18.75
2019-02-25T10:07:13.573Z,18.92
2019-02-25T10:10:05.665Z,19.43
2019-02-25T10:13:08.958Z,19.38
2019-02-25T10:15:59.860Z,19.03
2019-02-25T10:18:43.137Z,19.22
2019-02-25T10:21:34.119Z,18.77
2019-02-25T10:24:36.616Z,18.74
2019-02-25T10:27:27.558Z,18.13
2019-02-25T10:30:11.205Z,17.65
2019-02-25T10:33:02.194Z,16.65
2019-02-25T10:36:05.621Z,16.21
2019-02-25T10:38:56.543Z,15.59
2019-02-25T10:41:40.265Z,16.92
2019-02-25T10:44:31.841Z,15.88
2019-02-25T10:47:35.774Z,16.06
2019-02-25T10:50:26.705Z,15.71
2019-02-25T10:53:29.768Z,15.47
2019-02-25T10:56:34.477Z,15.23
2019-02-25T10:59:25.372Z,15.37
2019-02-25T11:02:09.419Z,15.31
2019-02-25T11:05:01.440Z,15.61
2019-02-25T11:07:45.541Z,16.43
2019-02-25T11:14:03.035Z,17.06
2019-02-25T11:16:54.770Z,17.23
2019-02-25T11:19:38.440Z,16.82
2019-02-25T11:22:29.366Z,16.80
2019-02-25T11:25:13.743Z,17.14
2019-02-25T11:28:06.629Z,16.94
2019-02-25T11:31:08.806Z,16.90
2019-02-25T11:34:00.707Z,17.35
2019-02-25T11:37:04.279Z,17.19
2019-02-25T11:39:57.064Z,16.93
2019-02-25T11:42:59.745Z,17.34
2019-02-25T11:45:50.780Z,17.65
2019-02-25T11:48:53.644Z,17.73
2019-02-25T11:51:46.192Z,17.33
2019-02-25T11:54:30.301Z,16.78
2019-02-25T11:57:21.292Z,17.15
2019-02-25T12:00:24.991Z,16.55
2019-02-25T12:06:18.076Z,16.45
2019-02-25T12:09:09.126Z,16.21
2019-02-25T12:11:52.772Z,16.50
2019-02-25T12:14:43.730Z,16.23
2019-02-25T12:17:46.562Z,16.96
2019-02-25T12:20:30.671Z,16.67
2019-02-25T12:23:21.617Z,17.00
2019-02-25T12:26:12.585Z,16.91
2019-02-25T12:28:55.896Z,17.55
2019-02-25T12:31:47.344Z,17.89
2019-02-25T12:34:30.611Z,17.87
2019-02-25T12:37:21.576Z,17.98
2019-02-25T12:40:05.455Z,18.11
2019-02-25T12:42:49.232Z,18.47
2019-02-25T12:45:40.160Z,19.05
2019-02-25T12:48:24.076Z,19.40
2019-02-25T12:51:14.992Z,18.87
2019-02-25T12:53:58.723Z,19.03
2019-02-25T12:56:49.663Z,18.25
2019-02-25T12:59:52.530Z,17.45
2019-02-25T13:02:43.474Z,17.81
2019-02-25T13:05:27.194Z,17.59
2019-02-25T13:08:18.143Z,17.96
2019-02-25T13:11:02.172Z,17.86
2019-02-25T13:13:53.102Z,17.62
2019-02-25T13:16:37.095Z,17.69
2019-02-25T13:19:27.998Z,17.48
2019-02-25T13:22:30.954Z,17.18
2019-02-25T13:25:21.939Z,17.52
2019-02-25T13:28:26.223Z,17.68
2019-02-25T13:31:17.132Z,17.22
2019-02-25T13:34:00.784Z,16.83
2019-02-25T13:36:51.686Z,16.69
2019-02-25T13:39:35.487Z,16.88
2019-02-25T13:42:26.378Z,16.23
2019-02-25T13:45:10.771Z,16.46
2019-02-25T13:48:01.692Z,16.24
2019-02-25T13:50:45.456Z,15.99
2019-02-25T13:53:36.395Z,16.47
2019-02-25T13:56:20.167Z,15.51
2019-02-25T13:59:11.102Z,16.06
2019-02-25T14:01:54.839Z,15.52
2019-02-25T14:04:46.032Z,15.18
2019-02-25T14:07:50.266Z,14.71
2019-02-25T14:10:33.536Z,15.16
2019-02-25T14:13:24.787Z,15.43
2019-02-25T14:16:07.927Z,15.07
2019-02-25T14:18:58.894Z,14.81
2019-02-25T14:22:01.640Z,14.66
2019-02-25T14:28:03.032Z,14.01
2019-02-25T14:30:54.216Z,14.12
2019-02-25T14:33:37.337Z,13.90
2019-02-25T14:36:28.657Z,14.36
2019-02-25T14:39:24.860Z,14.07
2019-02-25T14:42:33.525Z,14.14
2019-02-25T14:45:36.133Z,14.41
2019-02-25T14:48:30.232Z,14.35
2019-02-25T14:51:32.334Z,14.36
2019-02-25T14:54:24.515Z,14.67
2019-02-25T14:57:28.840Z,14.47
2019-02-25T15:03:27.041Z,14.51
2019-02-25T15:06:18.628Z,14.57
2019-02-25T15:09:03.996Z,14.52
2019-02-25T15:11:47.678Z,14.68
2019-02-25T15:14:38.685Z,14.93
2019-02-25T15:17:43.999Z,15.24
2019-02-25T15:23:44.915Z,15.72
2019-02-25T15:26:42.552Z,15.88
2019-02-25T15:29:42.351Z,16.27
2019-02-25T15:32:35.241Z,16.66
2019-02-25T15:35:39.375Z,16.77
2019-02-25T15:38:33.235Z,17.09
2019-02-25T15:41:35.534Z,17.07
2019-02-25T15:44:26.549Z,17.31
2019-02-25T15:47:29.266Z,17.41
2019-02-25T15:50:20.308Z,17.74
2019-02-25T15:53:05.561Z,17.68
2019-02-25T15:55:59.248Z,18.24
2019-02-25T15:59:00.906Z,18.31
2019-02-25T16:01:51.882Z,18.87
2019-02-25T16:04:36.495Z,19.08
2019-02-25T16:07:29.890Z,19.37
2019-02-25T16:10:33.370Z,19.48
2019-02-25T16:13:24.313Z,20.08
2019-02-25T16:16:27.623Z,20.27
2019-02-25T16:19:18.566Z,20.68
2019-02-25T16:22:02.747Z,21.00
2019-02-25T16:24:54.453Z,21.09
2019-02-25T16:27:38.133Z,21.28
2019-02-25T16:30:30.776Z,21.55
2019-02-25T16:33:35.240Z,21.92
2019-02-25T16:36:27.902Z,22.06
2019-02-25T16:39:30.725Z,22.44
2019-02-25T16:42:21.672Z,22.81
2019-02-25T16:45:07.658Z,23.08
2019-02-25T16:47:58.670Z,23.46
2019-02-25T16:50:44.574Z,23.83
2019-02-25T16:53:38.700Z,24.12
2019-02-25T16:56:39.226Z,24.55
2019-02-25T16:59:30.232Z,25.20
2019-02-25T17:02:14.283Z,25.59
2019-02-25T17:05:05.397Z,26.33
2019-02-25T17:08:12.018Z,26.94
2019-02-25T17:10:57.389Z,27.23
2019-02-25T17:13:48.108Z,27.84
2019-02-25T17:16:31.945Z,28.54
2019-02-25T17:19:22.863Z,28.85
2019-02-25T17:22:06.835Z,29.29
2019-02-25T17:24:58.135Z,29.65
2019-02-25T17:28:02.797Z,29.85
2019-02-25T17:30:53.715Z,30.55
2019-02-25T17:33:37.745Z,30.82
2019-02-25T17:36:28.660Z,31.05
2019-02-25T17:39:14.594Z,31.35
2019-02-25T17:45:29.990Z,31.98
2019-02-25T17:48:21.934Z,32.39
2019-02-25T17:51:05.369Z,33.32
2019-02-25T17:53:56.329Z,32.84
2019-02-25T17:56:47.973Z,32.12
2019-02-25T17:59:52.804Z,31.80
2019-02-25T18:02:44.574Z,32.59
2019-02-25T18:05:28.228Z,32.83
2019-02-25T18:08:19.160Z,33.15
2019-02-25T18:11:03.002Z,33.59
2019-02-25T18:13:48.941Z,34.44
2019-02-25T18:16:42.572Z,35.37
2019-02-25T18:19:47.692Z,34.75
2019-02-25T18:22:57.302Z,35.11
2019-02-25T18:25:43.023Z,35.54
2019-02-25T18:28:53.118Z,35.93
2019-02-25T18:31:36.486Z,37.68
2019-02-25T18:34:28.369Z,36.12
2019-02-25T18:37:32.714Z,35.65
2019-02-25T18:40:23.685Z,35.99
2019-02-25T18:43:07.491Z,36.50
2019-02-25T18:46:00.387Z,36.71
2019-02-25T18:49:05.107Z,37.54
2019-02-25T18:51:55.906Z,36.77
2019-02-25T18:54:40.809Z,37.42
2019-02-25T18:57:32.011Z,38.14
2019-02-25T19:00:19.972Z,37.61
2019-02-25T19:03:24.967Z,37.56
2019-02-25T19:06:17.261Z,38.28
2019-02-25T19:09:23.129Z,38.54
2019-02-25T19:12:14.205Z,39.02
2019-02-25T19:14:46.107Z,38.19
2019-02-25T19:17:37.065Z,38.00
2019-02-25T19:20:45.709Z,37.24
2019-02-25T19:23:55.956Z,37.71
2019-02-25T19:26:40.836Z,37.88
2019-02-25T19:29:31.816Z,38.23
2019-02-25T19:32:15.495Z,37.98
2019-02-25T19:35:09.726Z,37.93
2019-02-25T19:38:13.415Z,39.16
2019-02-25T19:41:04.911Z,39.19
2019-02-25T19:43:58.696Z,39.06
2019-02-25T19:46:42.987Z,39.79
2019-02-25T19:49:46.636Z,40.26
2019-02-25T19:52:39.612Z,40.94
2019-02-25T19:55:43.929Z,41.47
2019-02-25T19:58:39.233Z,41.49
2019-02-25T20:01:41.232Z,42.23
2019-02-25T20:04:35.487Z,42.73
2019-02-25T20:07:36.748Z,42.94
2019-02-25T20:13:22.691Z,42.73
2019-02-25T20:16:17.723Z,42.92
2019-02-25T20:19:19.113Z,43.71
2019-02-25T20:22:11.942Z,44.23
2019-02-25T20:25:16.799Z,44.17
2019-02-25T20:28:07.474Z,44.08
2019-02-25T20:30:52.032Z,44.37
2019-02-25T20:33:44.160Z,44.35
2019-02-25T20:36:29.034Z,44.35
2019-02-25T20:39:20.633Z,44.60
2019-02-25T20:42:24.486Z,43.83
2019-02-25T20:45:21.054Z,44.61
2019-02-25T20:48:23.453Z,45.96
2019-02-25T20:51:14.380Z,46.63
2019-02-25T20:53:57.944Z,48.03
2019-02-25T20:56:50.699Z,47.50
2019-02-25T20:59:55.289Z,45.91
2019-02-25T21:02:48.869Z,45.77
2019-02-25T21:05:32.454Z,46.08
2019-02-25T21:08:23.621Z,46.97
2019-02-25T21:11:28.095Z,47.16
2019-02-25T21:14:11.863Z,47.75
2019-02-25T21:17:03.195Z,47.92
2019-02-25T21:20:08.967Z,47.65
2019-02-25T21:23:05.254Z,47.91
2019-02-25T21:26:07.440Z,47.90
2019-02-25T21:28:59.912Z,48.66
2019-02-25T21:32:02.948Z,49.30
2019-02-25T21:34:56.010Z,49.27
2019-02-25T21:37:58.301Z,49.27
2019-02-25T21:40:50.519Z,49.70
2019-02-25T21:43:54.078Z,50.18
2019-02-25T21:46:51.916Z,50.15
2019-02-25T21:49:52.476Z,50.29
2019-02-25T21:52:45.736Z,50.82
2019-02-25T21:55:51.094Z,51.20
2019-02-25T21:58:44.427Z,51.59
2019-02-25T22:01:47.120Z,52.25
2019-02-25T22:04:40.425Z,52.54
2019-02-25T22:07:42.617Z,53.00
2019-02-25T22:10:36.280Z,52.88
2019-02-25T22:13:38.562Z,52.99
2019-02-25T22:16:23.489Z,53.14
2019-02-25T22:19:16.339Z,53.05
2019-02-25T22:22:19.337Z,53.23
2019-02-25T22:25:06.633Z,53.25
2019-02-25T22:27:59.009Z,52.91
2019-02-25T22:31:01.499Z,53.25
2019-02-25T22:33:52.441Z,53.52
2019-02-25T22:36:39.428Z,54.33
2019-02-25T22:39:30.220Z,53.90
2019-02-25T22:42:33.340Z,54.02
2019-02-25T22:45:25.624Z,54.19
2019-02-25T22:48:11.588Z,54.37
2019-02-25T22:51:02.570Z,54.56
2019-02-25T22:54:10.120Z,54.61
2019-02-25T22:56:59.305Z,54.62
2019-02-25T22:59:42.745Z,55.03
2019-02-25T23:02:33.669Z,55.16
2019-02-25T23:05:39.039Z,55.61
2019-02-25T23:08:29.669Z,55.98
2019-02-25T23:11:14.375Z,56.17
2019-02-25T23:14:07.700Z,56.61
2019-02-25T23:17:13.105Z,57.01
2019-02-25T23:20:05.664Z,57.53
2019-02-25T23:23:07.974Z,57.65
2019-02-25T23:26:19.894Z,58.24
2019-02-25T23:29:27.898Z,58.40
2019-02-25T23:32:17.451Z,58.76
2019-02-25T23:35:20.790Z,58.57
2019-02-25T23:38:12.655Z,58.80
2019-02-25T23:40:55.873Z,58.78
2019-02-25T23:43:48.712Z,58.43
2019-02-25T23:46:55.400Z,58.55
2019-02-25T23:49:46.088Z,58.53
2019-02-25T23:52:48.276Z,58.71
2019-02-25T23:55:39.214Z,58.77
2019-02-25T23:58:24.110Z,59.19
